sensor_id;sensor_type;location;lat;lon;timestamp;P1;durP1;ratioP1;P2;durP2;ratioP2
7173;SDS011;3628;48.654;8.932;2023-06-26T00:00:18;5.93;;;4.90;;
7173;SDS011;3628;48.654;8.932;2023-06-26T00:02:43;4.25;;;3.83;;
7173;SDS011;3628;48.654;8.932;2023-06-26T00:05:09;6.50;;;4.68;;
7173;SDS011;3628;48.654;8.932;2023-06-26T00:07:35;5.25;;;4.53;;
7173;SDS011;3628;48.654;8.932;2023-06-26T00:10:01;4.97;;;4.47;;
7173;SDS011;3628;48.654;8.932;2023-06-26T00:12:28;5.10;;;4.47;;
7173;SDS011;3628;48.654;8.932;2023-06-26T00:14:54;8.80;;;4.55;;
7173;SDS011;3628;48.654;8.932;2023-06-26T00:17:20;6.63;;;4.53;;
7173;SDS011;3628;48.654;8.932;2023-06-26T00:19:46;6.40;;;4.03;;
7173;SDS011;3628;48.654;8.932;2023-06-26T00:22:12;4.82;;;4.10;;
7173;SDS011;3628;48.654;8.932;2023-06-26T00:24:38;4.70;;;4.05;;
7173;SDS011;3628;48.654;8.932;2023-06-26T00:27:03;4.45;;;4.05;;
7173;SDS011;3628;48.654;8.932;2023-06-26T00:29:29;7.80;;;4.32;;
7173;SDS011;3628;48.654;8.932;2023-06-26T00:31:54;4.95;;;4.45;;
7173;SDS011;3628;48.654;8.932;2023-06-26T00:34:20;5.97;;;4.25;;
7173;SDS011;3628;48.654;8.932;2023-06-26T00:36:45;5.03;;;4.53;;
7173;SDS011;3628;48.654;8.932;2023-06-26T00:39:11;6.43;;;4.32;;
7173;SDS011;3628;48.654;8.932;2023-06-26T00:41:37;5.05;;;4.07;;
7173;SDS011;3628;48.654;8.932;2023-06-26T00:44:03;4.60;;;4.20;;
7173;SDS011;3628;48.654;8.932;2023-06-26T00:46:29;5.13;;;4.63;;
7173;SDS011;3628;48.654;8.932;2023-06-26T00:48:55;5.03;;;4.25;;
7173;SDS011;3628;48.654;8.932;2023-06-26T00:51:24;4.03;;;3.45;;
7173;SDS011;3628;48.654;8.932;2023-06-26T00:53:50;5.28;;;4.18;;
7173;SDS011;3628;48.654;8.932;2023-06-26T00:56:17;5.03;;;4.25;;
7173;SDS011;3628;48.654;8.932;2023-06-26T00:58:44;5.68;;;4.25;;
7173;SDS011;3628;48.654;8.932;2023-06-26T01:01:10;5.10;;;4.40;;
7173;SDS011;3628;48.654;8.932;2023-06-26T01:03:40;5.22;;;4.00;;
7173;SDS011;3628;48.654;8.932;2023-06-26T01:06:06;5.75;;;4.55;;
7173;SDS011;3628;48.654;8.932;2023-06-26T01:08:36;5.43;;;3.75;;
7173;SDS011;3628;48.654;8.932;2023-06-26T01:11:02;5.97;;;4.80;;
7173;SDS011;3628;48.654;8.932;2023-06-26T01:13:28;5.00;;;4.50;;
7173;SDS011;3628;48.654;8.932;2023-06-26T01:15:55;5.22;;;4.60;;
7173;SDS011;3628;48.654;8.932;2023-06-26T01:18:23;5.78;;;4.85;;
7173;SDS011;3628;48.654;8.932;2023-06-26T01:20:50;5.00;;;4.30;;
7173;SDS011;3628;48.654;8.932;2023-06-26T01:23:37;5.05;;;4.57;;
7173;SDS011;3628;48.654;8.932;2023-06-26T01:26:22;4.72;;;4.25;;
7173;SDS011;3628;48.654;8.932;2023-06-26T01:28:51;5.80;;;4.03;;
7173;SDS011;3628;48.654;8.932;2023-06-26T01:31:19;5.38;;;4.82;;
7173;SDS011;3628;48.654;8.932;2023-06-26T01:33:45;4.95;;;4.45;;
7173;SDS011;3628;48.654;8.932;2023-06-26T01:36:11;4.85;;;4.32;;
7173;SDS011;3628;48.654;8.932;2023-06-26T01:38:37;4.90;;;4.40;;
7173;SDS011;3628;48.654;8.932;2023-06-26T01:41:02;4.95;;;4.45;;
7173;SDS011;3628;48.654;8.932;2023-06-26T01:52:08;5.20;;;4.50;;
7173;SDS011;3628;48.654;8.932;2023-06-26T01:55:01;5.18;;;4.35;;
7173;SDS011;3628;48.654;8.932;2023-06-26T01:57:35;6.00;;;4.78;;
7173;SDS011;3628;48.654;8.932;2023-06-26T02:00:02;4.70;;;4.30;;
7173;SDS011;3628;48.654;8.932;2023-06-26T02:02:29;6.30;;;4.82;;
7173;SDS011;3628;48.654;8.932;2023-06-26T02:04:54;4.95;;;4.30;;
7173;SDS011;3628;48.654;8.932;2023-06-26T02:07:20;4.60;;;4.18;;
7173;SDS011;3628;48.654;8.932;2023-06-26T02:09:46;5.95;;;4.25;;
7173;SDS011;3628;48.654;8.932;2023-06-26T02:12:11;4.60;;;4.10;;
7173;SDS011;3628;48.654;8.932;2023-06-26T02:14:37;4.97;;;4.20;;
7173;SDS011;3628;48.654;8.932;2023-06-26T02:17:04;4.82;;;4.32;;
7173;SDS011;3628;48.654;8.932;2023-06-26T02:19:29;4.93;;;4.40;;
7173;SDS011;3628;48.654;8.932;2023-06-26T02:21:55;5.78;;;4.72;;
7173;SDS011;3628;48.654;8.932;2023-06-26T02:24:20;5.50;;;4.88;;
7173;SDS011;3628;48.654;8.932;2023-06-26T02:26:46;7.05;;;4.45;;
7173;SDS011;3628;48.654;8.932;2023-06-26T02:29:12;4.65;;;4.25;;
7173;SDS011;3628;48.654;8.932;2023-06-26T02:31:37;5.57;;;4.30;;
7173;SDS011;3628;48.654;8.932;2023-06-26T02:34:03;5.47;;;4.60;;
7173;SDS011;3628;48.654;8.932;2023-06-26T02:36:29;4.40;;;4.00;;
7173;SDS011;3628;48.654;8.932;2023-06-26T02:38:54;6.15;;;4.35;;
7173;SDS011;3628;48.654;8.932;2023-06-26T02:41:20;5.72;;;4.40;;
7173;SDS011;3628;48.654;8.932;2023-06-26T02:43:46;5.07;;;4.45;;
7173;SDS011;3628;48.654;8.932;2023-06-26T02:46:11;4.82;;;4.30;;
7173;SDS011;3628;48.654;8.932;2023-06-26T02:48:37;4.80;;;4.32;;
7173;SDS011;3628;48.654;8.932;2023-06-26T02:51:02;4.32;;;3.88;;
7173;SDS011;3628;48.654;8.932;2023-06-26T02:53:28;6.25;;;4.38;;
7173;SDS011;3628;48.654;8.932;2023-06-26T02:55:53;5.30;;;4.43;;
7173;SDS011;3628;48.654;8.932;2023-06-26T02:58:19;6.57;;;4.25;;
7173;SDS011;3628;48.654;8.932;2023-06-26T03:00:44;5.32;;;4.82;;
7173;SDS011;3628;48.654;8.932;2023-06-26T03:03:10;6.78;;;4.78;;
7173;SDS011;3628;48.654;8.932;2023-06-26T03:05:37;5.22;;;4.28;;
7173;SDS011;3628;48.654;8.932;2023-06-26T03:08:03;5.63;;;4.65;;
7173;SDS011;3628;48.654;8.932;2023-06-26T03:10:29;5.00;;;3.90;;
7173;SDS011;3628;48.654;8.932;2023-06-26T03:12:54;5.05;;;4.32;;
7173;SDS011;3628;48.654;8.932;2023-06-26T03:15:20;4.80;;;4.30;;
7173;SDS011;3628;48.654;8.932;2023-06-26T03:17:45;5.47;;;4.50;;
7173;SDS011;3628;48.654;8.932;2023-06-26T03:20:11;4.75;;;4.35;;
7173;SDS011;3628;48.654;8.932;2023-06-26T03:22:36;4.15;;;3.75;;
7173;SDS011;3628;48.654;8.932;2023-06-26T03:25:02;5.07;;;4.57;;
7173;SDS011;3628;48.654;8.932;2023-06-26T03:27:28;4.45;;;4.00;;
7173;SDS011;3628;48.654;8.932;2023-06-26T03:29:53;6.10;;;4.88;;
7173;SDS011;3628;48.654;8.932;2023-06-26T03:32:19;6.32;;;4.10;;
7173;SDS011;3628;48.654;8.932;2023-06-26T03:34:44;5.47;;;3.97;;
7173;SDS011;3628;48.654;8.932;2023-06-26T03:37:11;4.88;;;4.38;;
7173;SDS011;3628;48.654;8.932;2023-06-26T03:39:36;5.30;;;4.47;;
7173;SDS011;3628;48.654;8.932;2023-06-26T03:42:02;5.03;;;4.47;;
7173;SDS011;3628;48.654;8.932;2023-06-26T03:44:27;4.88;;;4.40;;
7173;SDS011;3628;48.654;8.932;2023-06-26T03:46:53;4.72;;;4.07;;
7173;SDS011;3628;48.654;8.932;2023-06-26T03:49:19;5.57;;;4.38;;
7173;SDS011;3628;48.654;8.932;2023-06-26T03:51:44;5.13;;;4.63;;
7173;SDS011;3628;48.654;8.932;2023-06-26T03:54:10;5.97;;;4.25;;
7173;SDS011;3628;48.654;8.932;2023-06-26T03:56:36;9.43;;;4.47;;
7173;SDS011;3628;48.654;8.932;2023-06-26T03:59:01;5.00;;;4.50;;
7173;SDS011;3628;48.654;8.932;2023-06-26T04:01:27;5.22;;;4.35;;
7173;SDS011;3628;48.654;8.932;2023-06-26T04:03:53;5.43;;;4.25;;
7173;SDS011;3628;48.654;8.932;2023-06-26T04:06:19;6.45;;;4.25;;
7173;SDS011;3628;48.654;8.932;2023-06-26T04:08:44;4.97;;;4.40;;
7173;SDS011;3628;48.654;8.932;2023-06-26T04:11:10;5.38;;;4.63;;
7173;SDS011;3628;48.654;8.932;2023-06-26T04:13:36;5.05;;;4.47;;
7173;SDS011;3628;48.654;8.932;2023-06-26T04:16:01;8.48;;;4.72;;
7173;SDS011;3628;48.654;8.932;2023-06-26T04:18:27;5.72;;;4.25;;
7173;SDS011;3628;48.654;8.932;2023-06-26T04:21:11;5.38;;;4.78;;
7173;SDS011;3628;48.654;8.932;2023-06-26T04:23:39;5.85;;;4.75;;
7173;SDS011;3628;48.654;8.932;2023-06-26T04:26:05;6.80;;;4.78;;
7173;SDS011;3628;48.654;8.932;2023-06-26T04:28:32;5.28;;;4.07;;
7173;SDS011;3628;48.654;8.932;2023-06-26T04:30:58;5.78;;;4.90;;
7173;SDS011;3628;48.654;8.932;2023-06-26T04:33:24;6.10;;;4.70;;
7173;SDS011;3628;48.654;8.932;2023-06-26T04:35:50;5.35;;;4.30;;
7173;SDS011;3628;48.654;8.932;2023-06-26T04:38:16;6.63;;;4.70;;
7173;SDS011;3628;48.654;8.932;2023-06-26T04:40:42;7.85;;;4.45;;
7173;SDS011;3628;48.654;8.932;2023-06-26T04:43:07;5.07;;;4.60;;
7173;SDS011;3628;48.654;8.932;2023-06-26T04:45:33;6.03;;;4.32;;
7173;SDS011;3628;48.654;8.932;2023-06-26T04:47:58;5.32;;;4.82;;
7173;SDS011;3628;48.654;8.932;2023-06-26T04:50:25;5.85;;;5.03;;
7173;SDS011;3628;48.654;8.932;2023-06-26T04:52:51;6.25;;;4.70;;
7173;SDS011;3628;48.654;8.932;2023-06-26T04:55:16;5.03;;;4.53;;
7173;SDS011;3628;48.654;8.932;2023-06-26T04:57:42;6.30;;;4.60;;
7173;SDS011;3628;48.654;8.932;2023-06-26T05:00:07;5.25;;;4.18;;
7173;SDS011;3628;48.654;8.932;2023-06-26T05:02:35;5.13;;;4.60;;
7173;SDS011;3628;48.654;8.932;2023-06-26T05:05:01;4.88;;;4.07;;
7173;SDS011;3628;48.654;8.932;2023-06-26T05:07:27;5.97;;;4.70;;
7173;SDS011;3628;48.654;8.932;2023-06-26T05:09:52;5.13;;;4.60;;
7173;SDS011;3628;48.654;8.932;2023-06-26T05:12:18;8.05;;;4.70;;
7173;SDS011;3628;48.654;8.932;2023-06-26T05:14:43;6.82;;;4.47;;
7173;SDS011;3628;48.654;8.932;2023-06-26T05:17:09;7.85;;;4.97;;
7173;SDS011;3628;48.654;8.932;2023-06-26T05:19:34;5.53;;;4.45;;
7173;SDS011;3628;48.654;8.932;2023-06-26T05:22:00;5.65;;;4.00;;
7173;SDS011;3628;48.654;8.932;2023-06-26T05:24:32;8.88;;;4.47;;
7173;SDS011;3628;48.654;8.932;2023-06-26T05:27:02;4.90;;;3.63;;
7173;SDS011;3628;48.654;8.932;2023-06-26T05:29:30;7.38;;;4.75;;
7173;SDS011;3628;48.654;8.932;2023-06-26T05:31:56;7.93;;;4.28;;
7173;SDS011;3628;48.654;8.932;2023-06-26T05:34:22;4.97;;;4.45;;
7173;SDS011;3628;48.654;8.932;2023-06-26T05:36:50;5.00;;;4.07;;
7173;SDS011;3628;48.654;8.932;2023-06-26T05:39:16;5.50;;;4.15;;
7173;SDS011;3628;48.654;8.932;2023-06-26T05:41:45;4.47;;;4.00;;
7173;SDS011;3628;48.654;8.932;2023-06-26T05:44:11;4.90;;;4.35;;
7173;SDS011;3628;48.654;8.932;2023-06-26T05:46:37;4.38;;;3.97;;
7173;SDS011;3628;48.654;8.932;2023-06-26T05:49:03;6.20;;;4.60;;
7173;SDS011;3628;48.654;8.932;2023-06-26T05:51:28;4.93;;;4.38;;
7173;SDS011;3628;48.654;8.932;2023-06-26T05:53:54;5.60;;;4.50;;
7173;SDS011;3628;48.654;8.932;2023-06-26T05:56:20;5.45;;;4.07;;
7173;SDS011;3628;48.654;8.932;2023-06-26T05:58:46;4.78;;;4.28;;
7173;SDS011;3628;48.654;8.932;2023-06-26T06:01:12;5.35;;;3.90;;
7173;SDS011;3628;48.654;8.932;2023-06-26T06:03:39;4.75;;;4.20;;
7173;SDS011;3628;48.654;8.932;2023-06-26T06:06:05;4.57;;;4.10;;
7173;SDS011;3628;48.654;8.932;2023-06-26T06:08:31;6.25;;;3.72;;
7173;SDS011;3628;48.654;8.932;2023-06-26T06:10:56;4.57;;;4.18;;
7173;SDS011;3628;48.654;8.932;2023-06-26T06:13:22;4.50;;;4.10;;
7173;SDS011;3628;48.654;8.932;2023-06-26T06:15:47;4.85;;;3.90;;
7173;SDS011;3628;48.654;8.932;2023-06-26T06:18:13;6.25;;;4.38;;
7173;SDS011;3628;48.654;8.932;2023-06-26T06:20:39;7.10;;;3.15;;
7173;SDS011;3628;48.654;8.932;2023-06-26T06:23:04;4.30;;;3.90;;
7173;SDS011;3628;48.654;8.932;2023-06-26T06:25:31;4.38;;;3.97;;
7173;SDS011;3628;48.654;8.932;2023-06-26T06:27:56;5.57;;;3.47;;
7173;SDS011;3628;48.654;8.932;2023-06-26T06:30:22;7.65;;;3.78;;
7173;SDS011;3628;48.654;8.932;2023-06-26T06:32:47;5.00;;;3.97;;
7173;SDS011;3628;48.654;8.932;2023-06-26T06:35:16;4.43;;;3.97;;
7173;SDS011;3628;48.654;8.932;2023-06-26T06:37:44;5.10;;;3.92;;
7173;SDS011;3628;48.654;8.932;2023-06-26T06:40:10;5.00;;;4.07;;
7173;SDS011;3628;48.654;8.932;2023-06-26T06:42:36;6.10;;;4.20;;
7173;SDS011;3628;48.654;8.932;2023-06-26T06:45:02;5.70;;;3.67;;
7173;SDS011;3628;48.654;8.932;2023-06-26T06:47:29;4.38;;;3.70;;
7173;SDS011;3628;48.654;8.932;2023-06-26T06:49:54;5.10;;;3.97;;
7173;SDS011;3628;48.654;8.932;2023-06-26T06:52:20;4.63;;;3.58;;
7173;SDS011;3628;48.654;8.932;2023-06-26T06:54:52;4.60;;;3.75;;
7173;SDS011;3628;48.654;8.932;2023-06-26T06:57:18;6.00;;;3.90;;
7173;SDS011;3628;48.654;8.932;2023-06-26T06:59:44;4.10;;;3.70;;
7173;SDS011;3628;48.654;8.932;2023-06-26T07:02:10;4.03;;;3.63;;
7173;SDS011;3628;48.654;8.932;2023-06-26T07:04:35;5.07;;;3.78;;
7173;SDS011;3628;48.654;8.932;2023-06-26T07:07:01;6.55;;;3.92;;
7173;SDS011;3628;48.654;8.932;2023-06-26T07:09:27;6.90;;;3.70;;
7173;SDS011;3628;48.654;8.932;2023-06-26T07:11:52;4.72;;;4.05;;
7173;SDS011;3628;48.654;8.932;2023-06-26T07:14:17;3.95;;;3.58;;
7173;SDS011;3628;48.654;8.932;2023-06-26T07:16:43;3.92;;;3.53;;
7173;SDS011;3628;48.654;8.932;2023-06-26T07:19:08;4.55;;;3.60;;
7173;SDS011;3628;48.654;8.932;2023-06-26T07:21:34;5.55;;;3.83;;
7173;SDS011;3628;48.654;8.932;2023-06-26T07:23:59;6.68;;;3.60;;
7173;SDS011;3628;48.654;8.932;2023-06-26T07:26:25;4.43;;;3.80;;
7173;SDS011;3628;48.654;8.932;2023-06-26T07:28:50;3.85;;;3.30;;
7173;SDS011;3628;48.654;8.932;2023-06-26T07:31:16;4.40;;;3.72;;
7173;SDS011;3628;48.654;8.932;2023-06-26T07:33:42;4.07;;;3.35;;
7173;SDS011;3628;48.654;8.932;2023-06-26T07:36:07;5.60;;;3.72;;
7173;SDS011;3628;48.654;8.932;2023-06-26T07:38:33;4.57;;;3.97;;
7173;SDS011;3628;48.654;8.932;2023-06-26T07:40:58;3.50;;;3.20;;
7173;SDS011;3628;48.654;8.932;2023-06-26T07:43:24;6.55;;;3.53;;
7173;SDS011;3628;48.654;8.932;2023-06-26T07:45:49;4.05;;;3.33;;
7173;SDS011;3628;48.654;8.932;2023-06-26T07:48:16;4.68;;;3.30;;
7173;SDS011;3628;48.654;8.932;2023-06-26T07:50:42;3.40;;;3.03;;
7173;SDS011;3628;48.654;8.932;2023-06-26T07:53:07;4.22;;;3.63;;
7173;SDS011;3628;48.654;8.932;2023-06-26T07:55:33;4.72;;;3.08;;
7173;SDS011;3628;48.654;8.932;2023-06-26T07:57:59;4.20;;;3.22;;
7173;SDS011;3628;48.654;8.932;2023-06-26T08:00:26;3.20;;;3.00;;
7173;SDS011;3628;48.654;8.932;2023-06-26T08:02:51;3.45;;;3.13;;
7173;SDS011;3628;48.654;8.932;2023-06-26T08:05:17;4.32;;;2.97;;
7173;SDS011;3628;48.654;8.932;2023-06-26T08:07:43;2.70;;;2.50;;
7173;SDS011;3628;48.654;8.932;2023-06-26T08:10:08;3.10;;;2.90;;
7173;SDS011;3628;48.654;8.932;2023-06-26T08:12:34;2.70;;;2.50;;
7173;SDS011;3628;48.654;8.932;2023-06-26T08:15:01;3.20;;;2.70;;
7173;SDS011;3628;48.654;8.932;2023-06-26T08:17:28;3.83;;;3.00;;
7173;SDS011;3628;48.654;8.932;2023-06-26T08:19:53;2.58;;;2.30;;
7173;SDS011;3628;48.654;8.932;2023-06-26T08:22:19;2.67;;;2.47;;
7173;SDS011;3628;48.654;8.932;2023-06-26T08:24:44;5.80;;;2.80;;
7173;SDS011;3628;48.654;8.932;2023-06-26T08:27:10;3.25;;;2.65;;
7173;SDS011;3628;48.654;8.932;2023-06-26T08:29:35;3.15;;;2.65;;
7173;SDS011;3628;48.654;8.932;2023-06-26T08:32:01;3.10;;;2.80;;
7173;SDS011;3628;48.654;8.932;2023-06-26T08:34:27;5.30;;;3.00;;
7173;SDS011;3628;48.654;8.932;2023-06-26T08:36:52;4.03;;;2.65;;
7173;SDS011;3628;48.654;8.932;2023-06-26T08:39:18;3.00;;;2.70;;
7173;SDS011;3628;48.654;8.932;2023-06-26T08:41:44;3.95;;;2.90;;
7173;SDS011;3628;48.654;8.932;2023-06-26T08:44:09;3.00;;;2.80;;
7173;SDS011;3628;48.654;8.932;2023-06-26T08:46:35;3.17;;;2.88;;
7173;SDS011;3628;48.654;8.932;2023-06-26T08:49:02;3.55;;;3.22;;
7173;SDS011;3628;48.654;8.932;2023-06-26T08:51:37;2.90;;;2.60;;
7173;SDS011;3628;48.654;8.932;2023-06-26T08:54:08;3.33;;;3.03;;
7173;SDS011;3628;48.654;8.932;2023-06-26T08:56:41;6.18;;;3.17;;
7173;SDS011;3628;48.654;8.932;2023-06-26T08:59:09;3.83;;;2.85;;
7173;SDS011;3628;48.654;8.932;2023-06-26T09:01:39;3.83;;;2.60;;
7173;SDS011;3628;48.654;8.932;2023-06-26T09:04:05;3.20;;;2.80;;
7173;SDS011;3628;48.654;8.932;2023-06-26T09:06:32;3.20;;;2.63;;
7173;SDS011;3628;48.654;8.932;2023-06-26T09:08:58;3.20;;;2.88;;
7173;SDS011;3628;48.654;8.932;2023-06-26T09:11:23;3.30;;;3.00;;
7173;SDS011;3628;48.654;8.932;2023-06-26T09:13:49;4.68;;;3.00;;
7173;SDS011;3628;48.654;8.932;2023-06-26T09:16:15;4.30;;;2.88;;
7173;SDS011;3628;48.654;8.932;2023-06-26T09:18:41;3.17;;;2.92;;
7173;SDS011;3628;48.654;8.932;2023-06-26T09:21:09;5.03;;;2.70;;
7173;SDS011;3628;48.654;8.932;2023-06-26T09:23:36;3.20;;;2.90;;
7173;SDS011;3628;48.654;8.932;2023-06-26T09:26:05;2.92;;;2.72;;
7173;SDS011;3628;48.654;8.932;2023-06-26T09:28:34;3.95;;;2.95;;
7173;SDS011;3628;48.654;8.932;2023-06-26T09:31:04;3.35;;;3.08;;
7173;SDS011;3628;48.654;8.932;2023-06-26T09:33:34;3.50;;;3.20;;
7173;SDS011;3628;48.654;8.932;2023-06-26T09:36:10;3.03;;;2.80;;
7173;SDS011;3628;48.654;8.932;2023-06-26T09:38:46;3.08;;;2.88;;
7173;SDS011;3628;48.654;8.932;2023-06-26T09:41:15;5.43;;;3.03;;
7173;SDS011;3628;48.654;8.932;2023-06-26T09:43:48;3.17;;;2.88;;
7173;SDS011;3628;48.654;8.932;2023-06-26T09:48:50;4.47;;;2.95;;
7173;SDS011;3628;48.654;8.932;2023-06-26T09:51:22;3.17;;;2.88;;
7173;SDS011;3628;48.654;8.932;2023-06-26T09:53:48;3.00;;;2.70;;
7173;SDS011;3628;48.654;8.932;2023-06-26T09:56:17;2.92;;;2.72;;
7173;SDS011;3628;48.654;8.932;2023-06-26T09:58:43;4.22;;;3.08;;
7173;SDS011;3628;48.654;8.932;2023-06-26T10:01:09;3.50;;;3.00;;
7173;SDS011;3628;48.654;8.932;2023-06-26T10:03:35;3.20;;;3.00;;
7173;SDS011;3628;48.654;8.932;2023-06-26T10:06:01;3.00;;;2.70;;
7173;SDS011;3628;48.654;8.932;2023-06-26T10:08:27;3.58;;;3.05;;
7173;SDS011;3628;48.654;8.932;2023-06-26T10:10:54;3.25;;;3.05;;
7173;SDS011;3628;48.654;8.932;2023-06-26T10:13:22;3.35;;;2.97;;
7173;SDS011;3628;48.654;8.932;2023-06-26T10:15:51;3.08;;;2.88;;
7173;SDS011;3628;48.654;8.932;2023-06-26T10:18:19;3.47;;;3.17;;
7173;SDS011;3628;48.654;8.932;2023-06-26T10:20:49;3.42;;;3.13;;
7173;SDS011;3628;48.654;8.932;2023-06-26T10:23:16;3.95;;;3.03;;
7173;SDS011;3628;48.654;8.932;2023-06-26T10:25:44;3.70;;;3.40;;
7173;SDS011;3628;48.654;8.932;2023-06-26T10:28:13;3.75;;;3.45;;
7173;SDS011;3628;48.654;8.932;2023-06-26T10:30:41;3.47;;;3.17;;
7173;SDS011;3628;48.654;8.932;2023-06-26T10:33:10;3.55;;;3.25;;
7173;SDS011;3628;48.654;8.932;2023-06-26T10:35:43;4.15;;;3.38;;
7173;SDS011;3628;48.654;8.932;2023-06-26T10:38:09;4.38;;;3.88;;
7173;SDS011;3628;48.654;8.932;2023-06-26T10:40:45;6.25;;;3.75;;
7173;SDS011;3628;48.654;8.932;2023-06-26T10:43:15;5.10;;;3.95;;
7173;SDS011;3628;48.654;8.932;2023-06-26T10:45:45;3.72;;;3.42;;
7173;SDS011;3628;48.654;8.932;2023-06-26T10:48:19;3.88;;;3.50;;
7173;SDS011;3628;48.654;8.932;2023-06-26T10:50:49;3.80;;;3.50;;
7173;SDS011;3628;48.654;8.932;2023-06-26T10:53:24;4.38;;;3.75;;
7173;SDS011;3628;48.654;8.932;2023-06-26T10:55:55;3.63;;;3.33;;
7173;SDS011;3628;48.654;8.932;2023-06-26T11:03:38;3.30;;;3.00;;
7173;SDS011;3628;48.654;8.932;2023-06-26T11:08:59;4.30;;;3.90;;
7173;SDS011;3628;48.654;8.932;2023-06-26T11:14:23;5.70;;;3.55;;
7173;SDS011;3628;48.654;8.932;2023-06-26T11:16:50;3.97;;;3.58;;
7173;SDS011;3628;48.654;8.932;2023-06-26T11:19:16;3.67;;;3.38;;
7173;SDS011;3628;48.654;8.932;2023-06-26T11:21:43;3.97;;;3.65;;
7173;SDS011;3628;48.654;8.932;2023-06-26T11:24:10;4.07;;;3.60;;
7173;SDS011;3628;48.654;8.932;2023-06-26T11:26:37;3.90;;;3.60;;
7173;SDS011;3628;48.654;8.932;2023-06-26T11:29:03;4.72;;;4.15;;
7173;SDS011;3628;48.654;8.932;2023-06-26T11:31:33;4.57;;;3.38;;
7173;SDS011;3628;48.654;8.932;2023-06-26T11:34:01;4.07;;;3.67;;
7173;SDS011;3628;48.654;8.932;2023-06-26T11:36:29;4.05;;;3.75;;
7173;SDS011;3628;48.654;8.932;2023-06-26T11:38:56;4.72;;;3.22;;
7173;SDS011;3628;48.654;8.932;2023-06-26T11:41:23;3.72;;;3.42;;
7173;SDS011;3628;48.654;8.932;2023-06-26T11:43:51;4.05;;;3.50;;
7173;SDS011;3628;48.654;8.932;2023-06-26T11:46:19;4.35;;;3.35;;
7173;SDS011;3628;48.654;8.932;2023-06-26T11:48:46;4.28;;;3.33;;
7173;SDS011;3628;48.654;8.932;2023-06-26T11:51:13;3.65;;;3.35;;
7173;SDS011;3628;48.654;8.932;2023-06-26T11:53:42;3.88;;;3.47;;
7173;SDS011;3628;48.654;8.932;2023-06-26T11:56:09;3.65;;;3.35;;
7173;SDS011;3628;48.654;8.932;2023-06-26T11:58:35;3.67;;;3.38;;
7173;SDS011;3628;48.654;8.932;2023-06-26T12:01:01;4.80;;;3.88;;
7173;SDS011;3628;48.654;8.932;2023-06-26T12:03:28;6.15;;;3.30;;
7173;SDS011;3628;48.654;8.932;2023-06-26T12:05:54;3.90;;;3.45;;
7173;SDS011;3628;48.654;8.932;2023-06-26T12:08:20;3.55;;;3.25;;
7173;SDS011;3628;48.654;8.932;2023-06-26T12:10:46;3.88;;;3.40;;
7173;SDS011;3628;48.654;8.932;2023-06-26T12:13:12;3.20;;;3.00;;
7173;SDS011;3628;48.654;8.932;2023-06-26T12:15:38;3.83;;;3.42;;
7173;SDS011;3628;48.654;8.932;2023-06-26T12:18:09;6.55;;;3.58;;
7173;SDS011;3628;48.654;8.932;2023-06-26T12:20:39;3.67;;;3.38;;
7173;SDS011;3628;48.654;8.932;2023-06-26T12:23:05;5.90;;;3.60;;
7173;SDS011;3628;48.654;8.932;2023-06-26T12:25:37;4.15;;;3.45;;
7173;SDS011;3628;48.654;8.932;2023-06-26T12:28:03;4.75;;;3.80;;
7173;SDS011;3628;48.654;8.932;2023-06-26T12:30:28;3.60;;;3.15;;
7173;SDS011;3628;48.654;8.932;2023-06-26T12:32:54;4.95;;;3.28;;
7173;SDS011;3628;48.654;8.932;2023-06-26T12:35:19;3.78;;;3.47;;
7173;SDS011;3628;48.654;8.932;2023-06-26T12:37:46;5.35;;;3.72;;
7173;SDS011;3628;48.654;8.932;2023-06-26T12:40:18;4.15;;;3.75;;
7173;SDS011;3628;48.654;8.932;2023-06-26T12:42:47;4.07;;;3.67;;
7173;SDS011;3628;48.654;8.932;2023-06-26T12:45:12;4.88;;;3.80;;
7173;SDS011;3628;48.654;8.932;2023-06-26T12:47:39;5.78;;;3.50;;
7173;SDS011;3628;48.654;8.932;2023-06-26T12:50:06;5.75;;;4.35;;
7173;SDS011;3628;48.654;8.932;2023-06-26T12:52:32;3.75;;;3.45;;
7173;SDS011;3628;48.654;8.932;2023-06-26T12:54:58;4.35;;;3.60;;
7173;SDS011;3628;48.654;8.932;2023-06-26T12:57:24;4.30;;;3.90;;
7173;SDS011;3628;48.654;8.932;2023-06-26T12:59:49;7.75;;;3.95;;
7173;SDS011;3628;48.654;8.932;2023-06-26T13:02:15;3.97;;;3.58;;
7173;SDS011;3628;48.654;8.932;2023-06-26T13:04:41;3.50;;;3.20;;
7173;SDS011;3628;48.654;8.932;2023-06-26T13:07:07;4.38;;;3.38;;
7173;SDS011;3628;48.654;8.932;2023-06-26T13:09:33;4.53;;;3.03;;
7173;SDS011;3628;48.654;8.932;2023-06-26T13:12:00;4.72;;;3.35;;
7173;SDS011;3628;48.654;8.932;2023-06-26T13:14:26;4.47;;;3.20;;
7173;SDS011;3628;48.654;8.932;2023-06-26T13:16:52;3.30;;;3.00;;
7173;SDS011;3628;48.654;8.932;2023-06-26T13:19:17;5.65;;;3.65;;
7173;SDS011;3628;48.654;8.932;2023-06-26T13:21:43;4.25;;;3.55;;
7173;SDS011;3628;48.654;8.932;2023-06-26T13:24:08;6.05;;;3.30;;
7173;SDS011;3628;48.654;8.932;2023-06-26T13:26:34;3.53;;;2.92;;
7173;SDS011;3628;48.654;8.932;2023-06-26T13:29:00;3.53;;;3.20;;
7173;SDS011;3628;48.654;8.932;2023-06-26T13:31:26;4.22;;;3.53;;
7173;SDS011;3628;48.654;8.932;2023-06-26T13:33:52;4.43;;;3.15;;
7173;SDS011;3628;48.654;8.932;2023-06-26T13:36:17;5.03;;;3.25;;
7173;SDS011;3628;48.654;8.932;2023-06-26T13:38:43;3.13;;;2.85;;
7173;SDS011;3628;48.654;8.932;2023-06-26T13:41:09;3.38;;;2.67;;
7173;SDS011;3628;48.654;8.932;2023-06-26T13:43:35;3.88;;;2.97;;
7173;SDS011;3628;48.654;8.932;2023-06-26T13:46:01;2.70;;;2.50;;
7173;SDS011;3628;48.654;8.932;2023-06-26T13:48:28;4.30;;;3.33;;
7173;SDS011;3628;48.654;8.932;2023-06-26T13:50:54;5.32;;;2.75;;
7173;SDS011;3628;48.654;8.932;2023-06-26T13:53:21;3.92;;;2.90;;
7173;SDS011;3628;48.654;8.932;2023-06-26T13:55:46;3.42;;;3.10;;
7173;SDS011;3628;48.654;8.932;2023-06-26T13:58:12;4.97;;;3.03;;
7173;SDS011;3628;48.654;8.932;2023-06-26T14:00:38;4.13;;;3.00;;
7173;SDS011;3628;48.654;8.932;2023-06-26T14:03:04;3.38;;;3.08;;
7173;SDS011;3628;48.654;8.932;2023-06-26T14:05:34;2.85;;;2.65;;
7173;SDS011;3628;48.654;8.932;2023-06-26T14:08:04;5.32;;;3.00;;
7173;SDS011;3628;48.654;8.932;2023-06-26T14:10:30;4.70;;;2.65;;
7173;SDS011;3628;48.654;8.932;2023-06-26T14:12:58;3.42;;;2.90;;
7173;SDS011;3628;48.654;8.932;2023-06-26T14:15:24;4.60;;;2.72;;
7173;SDS011;3628;48.654;8.932;2023-06-26T14:17:49;3.10;;;2.80;;
7173;SDS011;3628;48.654;8.932;2023-06-26T14:20:15;2.60;;;2.40;;
7173;SDS011;3628;48.654;8.932;2023-06-26T14:22:41;2.70;;;2.50;;
7173;SDS011;3628;48.654;8.932;2023-06-26T14:25:09;5.28;;;2.83;;
7173;SDS011;3628;48.654;8.932;2023-06-26T14:27:35;2.33;;;2.13;;
7173;SDS011;3628;48.654;8.932;2023-06-26T14:30:02;2.92;;;2.38;;
7173;SDS011;3628;48.654;8.932;2023-06-26T14:32:28;3.00;;;2.60;;
7173;SDS011;3628;48.654;8.932;2023-06-26T14:34:54;3.70;;;2.25;;
7173;SDS011;3628;48.654;8.932;2023-06-26T14:37:20;2.53;;;2.03;;
7173;SDS011;3628;48.654;8.932;2023-06-26T14:39:46;2.88;;;2.20;;
7173;SDS011;3628;48.654;8.932;2023-06-26T14:42:11;3.45;;;2.38;;
7173;SDS011;3628;48.654;8.932;2023-06-26T14:44:37;4.57;;;2.47;;
7173;SDS011;3628;48.654;8.932;2023-06-26T14:47:03;3.47;;;2.20;;
7173;SDS011;3628;48.654;8.932;2023-06-26T14:49:29;2.40;;;2.22;;
7173;SDS011;3628;48.654;8.932;2023-06-26T14:51:55;4.43;;;2.33;;
7173;SDS011;3628;48.654;8.932;2023-06-26T14:54:20;3.88;;;1.95;;
7173;SDS011;3628;48.654;8.932;2023-06-26T14:56:46;2.30;;;2.10;;
7173;SDS011;3628;48.654;8.932;2023-06-26T14:59:11;2.30;;;2.00;;
7173;SDS011;3628;48.654;8.932;2023-06-26T15:01:37;2.72;;;2.17;;
7173;SDS011;3628;48.654;8.932;2023-06-26T15:04:04;3.00;;;1.98;;
7173;SDS011;3628;48.654;8.932;2023-06-26T15:06:30;2.38;;;2.20;;
7173;SDS011;3628;48.654;8.932;2023-06-26T15:08:56;3.85;;;2.35;;
7173;SDS011;3628;48.654;8.932;2023-06-26T15:11:21;3.65;;;2.20;;
7173;SDS011;3628;48.654;8.932;2023-06-26T15:13:47;5.40;;;2.38;;
7173;SDS011;3628;48.654;8.932;2023-06-26T15:16:12;2.60;;;2.40;;
7173;SDS011;3628;48.654;8.932;2023-06-26T15:18:38;4.90;;;2.20;;
7173;SDS011;3628;48.654;8.932;2023-06-26T15:21:03;5.43;;;2.40;;
7173;SDS011;3628;48.654;8.932;2023-06-26T15:23:29;3.53;;;2.25;;
7173;SDS011;3628;48.654;8.932;2023-06-26T15:25:55;3.38;;;2.60;;
7173;SDS011;3628;48.654;8.932;2023-06-26T15:28:20;2.78;;;2.45;;
7173;SDS011;3628;48.654;8.932;2023-06-26T15:30:46;5.15;;;2.83;;
7173;SDS011;3628;48.654;8.932;2023-06-26T15:33:12;4.35;;;2.65;;